sensor_id;sensor_type;location;lat;lon;timestamp;pressure;altitude;pressure_sealevel;temperature;humidity
13434;BME280;6789;47.678;9.158;2023-03-12T00:02:13;96417.34;;;4.82;99.87
13434;BME280;6789;47.678;9.158;2023-03-12T00:07:24;96413.75;;;4.83;100.00
13434;BME280;6789;47.678;9.158;2023-03-12T00:12:37;96424.53;;;4.80;100.00
13434;BME280;6789;47.678;9.158;2023-03-12T00:17:56;96417.75;;;4.79;100.00
13434;BME280;6789;47.678;9.158;2023-03-12T00:23:32;96424.13;;;4.83;100.00
13434;BME280;6789;47.678;9.158;2023-03-12T00:28:41;96421.94;;;4.87;100.00
13434;BME280;6789;47.678;9.158;2023-03-12T00:33:51;96427.75;;;4.89;100.00
13434;BME280;6789;47.678;9.158;2023-03-12T00:39:09;96432.13;;;4.88;100.00
13434;BME280;6789;47.678;9.158;2023-03-12T00:44:16;96435.34;;;4.90;100.00
13434;BME280;6789;47.678;9.158;2023-03-12T00:49:47;96438.56;;;4.98;100.00
13434;BME280;6789;47.678;9.158;2023-03-12T00:54:57;96441.75;;;4.94;100.00
13434;BME280;6789;47.678;9.158;2023-03-12T01:00:05;96449.34;;;5.02;100.00
13434;BME280;6789;47.678;9.158;2023-03-12T01:05:32;96447.75;;;5.01;100.00
13434;BME280;6789;47.678;9.158;2023-03-12T01:10:42;96434.97;;;5.06;99.93
13434;BME280;6789;47.678;9.158;2023-03-12T01:15:52;96433.41;;;5.05;99.84
13434;BME280;6789;47.678;9.158;2023-03-12T01:20:58;96442.97;;;5.04;99.82
13434;BME280;6789;47.678;9.158;2023-03-12T01:26:04;96436.41;;;5.08;99.46
13434;BME280;6789;47.678;9.158;2023-03-12T01:31:21;96437.59;;;5.12;100.00
13434;BME280;6789;47.678;9.158;2023-03-12T01:36:40;96437.56;;;5.06;99.37
13434;BME280;6789;47.678;9.158;2023-03-12T01:41:56;96436.56;;;5.07;99.50
13434;BME280;6789;47.678;9.158;2023-03-12T01:47:10;96445.59;;;5.11;99.75
13434;BME280;6789;47.678;9.158;2023-03-12T01:52:29;96439.00;;;5.15;98.79
13434;BME280;6789;47.678;9.158;2023-03-12T01:57:46;96437.38;;;5.14;99.22
13434;BME280;6789;47.678;9.158;2023-03-12T02:02:59;96437.59;;;5.12;98.58
13434;BME280;6789;47.678;9.158;2023-03-12T02:08:41;96435.59;;;5.14;98.46
13434;BME280;6789;47.678;9.158;2023-03-12T02:14:11;96427.59;;;5.16;98.44
13434;BME280;6789;47.678;9.158;2023-03-12T02:25:36;96434.59;;;5.15;98.01
13434;BME280;6789;47.678;9.158;2023-03-12T02:31:04;96437.00;;;5.17;98.00
13434;BME280;6789;47.678;9.158;2023-03-12T02:36:22;96435.19;;;5.17;98.20
13434;BME280;6789;47.678;9.158;2023-03-12T02:41:35;96437.38;;;5.14;97.53
13434;BME280;6789;47.678;9.158;2023-03-12T02:46:34;96446.19;;;5.13;97.86
13434;BME280;6789;47.678;9.158;2023-03-12T02:51:28;96444.97;;;5.09;97.95
13434;BME280;6789;47.678;9.158;2023-03-12T02:56:26;96456.56;;;5.13;98.28
13434;BME280;6789;47.678;9.158;2023-03-12T03:01:18;96453.59;;;5.16;97.54
13434;BME280;6789;47.678;9.158;2023-03-12T03:06:11;96451.00;;;5.16;97.43
13434;BME280;6789;47.678;9.158;2023-03-12T03:11:05;96459.78;;;5.15;98.20
13434;BME280;6789;47.678;9.158;2023-03-12T03:15:58;96468.38;;;5.15;98.20
13434;BME280;6789;47.678;9.158;2023-03-12T03:21:12;96466.59;;;5.22;98.05
13434;BME280;6789;47.678;9.158;2023-03-12T03:26:07;96471.00;;;5.22;97.84
13434;BME280;6789;47.678;9.158;2023-03-12T03:30:59;96469.59;;;5.26;97.97
13434;BME280;6789;47.678;9.158;2023-03-12T03:35:52;96466.00;;;5.27;97.71
13434;BME280;6789;47.678;9.158;2023-03-12T03:40:45;96461.41;;;5.29;97.50
13434;BME280;6789;47.678;9.158;2023-03-12T03:45:37;96466.41;;;5.43;96.33
13434;BME280;6789;47.678;9.158;2023-03-12T03:50:29;96453.19;;;5.32;96.61
13434;BME280;6789;47.678;9.158;2023-03-12T03:55:22;96440.63;;;5.35;96.86
13434;BME280;6789;47.678;9.158;2023-03-12T04:00:14;96437.81;;;5.37;97.21
13434;BME280;6789;47.678;9.158;2023-03-12T04:05:09;96418.03;;;5.36;98.08
13434;BME280;6789;47.678;9.158;2023-03-12T04:10:02;96413.41;;;5.38;98.24
13434;BME280;6789;47.678;9.158;2023-03-12T04:14:55;96402.63;;;5.41;98.07
13434;BME280;6789;47.678;9.158;2023-03-12T04:19:47;96399.41;;;5.39;99.27
13434;BME280;6789;47.678;9.158;2023-03-12T04:24:39;96408.63;;;5.41;99.30
13434;BME280;6789;47.678;9.158;2023-03-12T04:29:30;96414.81;;;5.40;99.16
13434;BME280;6789;47.678;9.158;2023-03-12T04:34:22;96430.44;;;5.47;99.72
13434;BME280;6789;47.678;9.158;2023-03-12T04:39:18;96443.63;;;5.45;100.00
13434;BME280;6789;47.678;9.158;2023-03-12T04:44:11;96432.41;;;5.45;99.98
13434;BME280;6789;47.678;9.158;2023-03-12T04:49:04;96435.03;;;5.45;100.00
13434;BME280;6789;47.678;9.158;2023-03-12T04:53:57;96438.22;;;5.47;100.00
13434;BME280;6789;47.678;9.158;2023-03-12T04:59:06;96426.81;;;5.54;99.35
13434;BME280;6789;47.678;9.158;2023-03-12T05:04:13;96432.63;;;5.56;99.29
13434;BME280;6789;47.678;9.158;2023-03-12T05:09:05;96431.03;;;5.55;99.14
13434;BME280;6789;47.678;9.158;2023-03-12T05:13:57;96406.03;;;5.54;98.50
13434;BME280;6789;47.678;9.158;2023-03-12T05:18:49;96414.44;;;5.56;98.86
13434;BME280;6789;47.678;9.158;2023-03-12T05:23:41;96414.81;;;5.60;98.66
13434;BME280;6789;47.678;9.158;2023-03-12T05:28:33;96429.63;;;5.59;98.41
13434;BME280;6789;47.678;9.158;2023-03-12T05:33:27;96411.00;;;5.56;99.00
13434;BME280;6789;47.678;9.158;2023-03-12T05:38:19;96411.81;;;5.50;99.39
13434;BME280;6789;47.678;9.158;2023-03-12T05:43:35;96424.81;;;5.50;99.79
13434;BME280;6789;47.678;9.158;2023-03-12T05:48:27;96414.22;;;5.58;99.39
13434;BME280;6789;47.678;9.158;2023-03-12T05:53:19;96422.22;;;5.56;99.07
13434;BME280;6789;47.678;9.158;2023-03-12T05:58:11;96431.81;;;5.62;99.25
13434;BME280;6789;47.678;9.158;2023-03-12T06:03:04;96432.44;;;5.64;99.65
13434;BME280;6789;47.678;9.158;2023-03-12T06:07:56;96408.03;;;5.46;100.00
13434;BME280;6789;47.678;9.158;2023-03-12T06:13:02;96420.03;;;5.47;100.00
13434;BME280;6789;47.678;9.158;2023-03-12T06:17:53;96428.22;;;5.57;100.00
13434;BME280;6789;47.678;9.158;2023-03-12T06:22:45;96423.84;;;5.57;100.00
13434;BME280;6789;47.678;9.158;2023-03-12T06:27:37;96430.00;;;5.63;100.00
13434;BME280;6789;47.678;9.158;2023-03-12T06:32:28;96436.63;;;5.65;100.00
13434;BME280;6789;47.678;9.158;2023-03-12T06:37:20;96442.63;;;5.72;100.00
13434;BME280;6789;47.678;9.158;2023-03-12T06:42:12;96419.44;;;5.77;100.00
13434;BME280;6789;47.678;9.158;2023-03-12T06:47:06;96431.84;;;5.81;100.00
13434;BME280;6789;47.678;9.158;2023-03-12T06:51:59;96437.63;;;5.90;100.00
13434;BME280;6789;47.678;9.158;2023-03-12T06:57:07;96442.44;;;5.80;100.00
13434;BME280;6789;47.678;9.158;2023-03-12T07:02:39;96437.25;;;5.80;100.00
13434;BME280;6789;47.678;9.158;2023-03-12T07:08:15;96443.25;;;5.87;100.00
13434;BME280;6789;47.678;9.158;2023-03-12T07:13:07;96448.06;;;5.83;100.00
13434;BME280;6789;47.678;9.158;2023-03-12T07:18:03;96464.44;;;6.03;100.00
13434;BME280;6789;47.678;9.158;2023-03-12T07:22:55;96456.22;;;6.06;100.00
13434;BME280;6789;47.678;9.158;2023-03-12T07:28:00;96465.22;;;6.23;100.00
13434;BME280;6789;47.678;9.158;2023-03-12T07:33:11;96476.47;;;6.04;100.00
13434;BME280;6789;47.678;9.158;2023-03-12T07:38:10;96475.81;;;6.28;100.00
13434;BME280;6789;47.678;9.158;2023-03-12T07:43:04;96475.53;;;6.49;100.00
13434;BME280;6789;47.678;9.158;2023-03-12T07:48:39;96481.88;;;6.79;100.00
13434;BME280;6789;47.678;9.158;2023-03-12T07:53:34;96490.81;;;6.96;100.00
13434;BME280;6789;47.678;9.158;2023-03-12T07:58:28;96489.72;;;7.16;100.00
13434;BME280;6789;47.678;9.158;2023-03-12T08:03:55;96488.63;;;7.30;100.00
13434;BME280;6789;47.678;9.158;2023-03-12T08:09:08;96487.34;;;7.45;100.00
13434;BME280;6789;47.678;9.158;2023-03-12T08:14:40;96495.44;;;7.86;100.00
13434;BME280;6789;47.678;9.158;2023-03-12T08:19:38;96489.06;;;8.31;100.00
13434;BME280;6789;47.678;9.158;2023-03-12T08:24:31;96492.28;;;8.68;98.68
13434;BME280;6789;47.678;9.158;2023-03-12T08:29:49;96497.25;;;8.76;95.79
13434;BME280;6789;47.678;9.158;2023-03-12T08:35:07;96506.22;;;8.62;97.29
13434;BME280;6789;47.678;9.158;2023-03-12T08:40:14;96512.56;;;8.55;98.10
13434;BME280;6789;47.678;9.158;2023-03-12T08:45:09;96520.09;;;8.63;98.99
13434;BME280;6789;47.678;9.158;2023-03-12T08:50:15;96527.72;;;8.64;99.68
13434;BME280;6789;47.678;9.158;2023-03-12T08:55:10;96518.56;;;8.55;99.89
13434;BME280;6789;47.678;9.158;2023-03-12T09:00:06;96523.19;;;8.53;100.00
13434;BME280;6789;47.678;9.158;2023-03-12T09:05:03;96536.88;;;8.73;99.61
13434;BME280;6789;47.678;9.158;2023-03-12T09:09:55;96533.09;;;8.52;100.00
13434;BME280;6789;47.678;9.158;2023-03-12T09:14:47;96525.69;;;8.66;100.00
13434;BME280;6789;47.678;9.158;2023-03-12T09:19:54;96534.25;;;8.73;99.53
13434;BME280;6789;47.678;9.158;2023-03-12T09:24:47;96534.75;;;9.00;99.10
13434;BME280;6789;47.678;9.158;2023-03-12T09:29:43;96534.31;;;9.21;97.72
13434;BME280;6789;47.678;9.158;2023-03-12T09:34:48;96539.09;;;9.41;97.61
13434;BME280;6789;47.678;9.158;2023-03-12T09:39:40;96546.66;;;9.61;96.31
13434;BME280;6789;47.678;9.158;2023-03-12T09:44:49;96551.91;;;9.61;96.72
13434;BME280;6789;47.678;9.158;2023-03-12T09:50:16;96555.69;;;9.47;97.68
13434;BME280;6789;47.678;9.158;2023-03-12T09:55:26;96559.63;;;9.56;97.50
13434;BME280;6789;47.678;9.158;2023-03-12T10:00:23;96569.03;;;9.45;98.37
13434;BME280;6789;47.678;9.158;2023-03-12T10:06:05;96562.53;;;9.48;100.00
13434;BME280;6789;47.678;9.158;2023-03-12T10:16:56;96565.75;;;9.50;98.51
13434;BME280;6789;47.678;9.158;2023-03-12T10:22:26;96561.78;;;9.12;100.00
13434;BME280;6789;47.678;9.158;2023-03-12T10:27:24;96561.88;;;9.05;100.00
13434;BME280;6789;47.678;9.158;2023-03-12T10:32:32;96556.47;;;9.18;100.00
13434;BME280;6789;47.678;9.158;2023-03-12T10:37:38;96552.09;;;9.30;100.00
13434;BME280;6789;47.678;9.158;2023-03-12T10:42:31;96564.75;;;9.33;100.00
13434;BME280;6789;47.678;9.158;2023-03-12T10:47:35;96566.69;;;9.37;100.00
13434;BME280;6789;47.678;9.158;2023-03-12T10:52:27;96567.72;;;9.36;100.00
13434;BME280;6789;47.678;9.158;2023-03-12T10:57:19;96563.25;;;9.55;100.00
13434;BME280;6789;47.678;9.158;2023-03-12T11:02:33;96566.28;;;9.70;100.00
13434;BME280;6789;47.678;9.158;2023-03-12T11:07:43;96571.34;;;9.83;100.00
13434;BME280;6789;47.678;9.158;2023-03-12T11:12:39;96587.38;;;9.86;100.00
13434;BME280;6789;47.678;9.158;2023-03-12T11:17:45;96591.97;;;9.91;100.00
13434;BME280;6789;47.678;9.158;2023-03-12T11:22:50;96597.00;;;9.92;100.00
13434;BME280;6789;47.678;9.158;2023-03-12T11:28:01;96603.00;;;10.10;100.00
13434;BME280;6789;47.678;9.158;2023-03-12T11:33:02;96600.84;;;10.07;100.00
13434;BME280;6789;47.678;9.158;2023-03-12T11:54:33;96610.66;;;10.23;100.00
13434;BME280;6789;47.678;9.158;2023-03-12T11:59:50;96613.75;;;10.32;100.00
13434;BME280;6789;47.678;9.158;2023-03-12T12:15:41;96612.56;;;10.80;99.54
13434;BME280;6789;47.678;9.158;2023-03-12T12:21:18;96595.53;;;10.48;100.00
13434;BME280;6789;47.678;9.158;2023-03-12T12:38:02;96570.47;;;11.48;94.69
13434;BME280;6789;47.678;9.158;2023-03-12T12:48:37;96569.16;;;11.90;90.65
13434;BME280;6789;47.678;9.158;2023-03-12T12:53:47;96553.59;;;12.33;89.43
13434;BME280;6789;47.678;9.158;2023-03-12T13:04:29;96560.59;;;12.60;80.42
13434;BME280;6789;47.678;9.158;2023-03-12T13:14:41;96556.44;;;12.80;75.35
13434;BME280;6789;47.678;9.158;2023-03-12T13:19:39;96574.09;;;12.47;76.30
13434;BME280;6789;47.678;9.158;2023-03-12T13:29:39;96581.66;;;12.11;79.83
13434;BME280;6789;47.678;9.158;2023-03-12T13:34:45;96560.84;;;12.59;77.44
13434;BME280;6789;47.678;9.158;2023-03-12T13:39:37;96569.31;;;13.15;76.75
13434;BME280;6789;47.678;9.158;2023-03-12T13:44:38;96568.41;;;13.04;72.74
13434;BME280;6789;47.678;9.158;2023-03-12T13:54:47;96591.34;;;13.09;75.87
13434;BME280;6789;47.678;9.158;2023-03-12T13:59:44;96595.38;;;12.95;73.36
13434;BME280;6789;47.678;9.158;2023-03-12T14:04:45;96608.84;;;12.66;72.57
13434;BME280;6789;47.678;9.158;2023-03-12T14:10:27;96600.16;;;12.49;75.76
13434;BME280;6789;47.678;9.158;2023-03-12T14:20:40;96601.25;;;12.85;72.79
13434;BME280;6789;47.678;9.158;2023-03-12T14:25:46;96576.69;;;13.13;69.91
13434;BME280;6789;47.678;9.158;2023-03-12T14:30:57;96587.38;;;13.06;69.44
13434;BME280;6789;47.678;9.158;2023-03-12T14:36:00;96561.69;;;12.80;70.75
13434;BME280;6789;47.678;9.158;2023-03-12T14:41:10;96561.53;;;13.03;71.54
13434;BME280;6789;47.678;9.158;2023-03-12T14:46:18;96553.22;;;13.11;70.97
13434;BME280;6789;47.678;9.158;2023-03-12T14:51:34;96552.25;;;13.17;71.59
13434;BME280;6789;47.678;9.158;2023-03-12T14:56:33;96556.03;;;13.26;69.92
13434;BME280;6789;47.678;9.158;2023-03-12T15:01:31;96557.28;;;13.19;69.02
13434;BME280;6789;47.678;9.158;2023-03-12T15:06:46;96550.09;;;13.14;68.43
13434;BME280;6789;47.678;9.158;2023-03-12T15:11:38;96551.91;;;12.76;69.82
13434;BME280;6789;47.678;9.158;2023-03-12T15:16:30;96554.88;;;12.80;70.58
13434;BME280;6789;47.678;9.158;2023-03-12T15:21:23;96568.94;;;12.52;71.18
13434;BME280;6789;47.678;9.158;2023-03-12T15:26:28;96570.97;;;12.67;72.54
13434;BME280;6789;47.678;9.158;2023-03-12T15:31:23;96562.97;;;12.94;72.67
13434;BME280;6789;47.678;9.158;2023-03-12T15:36:25;96562.56;;;12.86;72.49
13434;BME280;6789;47.678;9.158;2023-03-12T15:41:47;96557.91;;;12.72;72.03
13434;BME280;6789;47.678;9.158;2023-03-12T15:46:52;96553.06;;;12.85;72.17
13434;BME280;6789;47.678;9.158;2023-03-12T15:57:50;96555.59;;;12.59;71.90
13434;BME280;6789;47.678;9.158;2023-03-12T16:03:16;96563.03;;;12.45;73.96
13434;BME280;6789;47.678;9.158;2023-03-12T16:08:39;96558.78;;;12.44;73.31
13434;BME280;6789;47.678;9.158;2023-03-12T16:13:32;96557.91;;;12.39;73.79
13434;BME280;6789;47.678;9.158;2023-03-12T16:18:24;96566.28;;;12.19;74.88
13434;BME280;6789;47.678;9.158;2023-03-12T16:23:16;96569.16;;;11.90;76.09
13434;BME280;6789;47.678;9.158;2023-03-12T16:28:13;96569.09;;;11.85;76.97
13434;BME280;6789;47.678;9.158;2023-03-12T16:33:06;96576.13;;;11.68;77.82
13434;BME280;6789;47.678;9.158;2023-03-12T16:38:01;96581.38;;;11.68;78.88
13434;BME280;6789;47.678;9.158;2023-03-12T16:42:53;96578.88;;;11.50;79.94
13434;BME280;6789;47.678;9.158;2023-03-12T16:47:57;96571.38;;;11.42;80.47
13434;BME280;6789;47.678;9.158;2023-03-12T16:52:50;96569.69;;;11.37;81.46
13434;BME280;6789;47.678;9.158;2023-03-12T16:58:09;96575.22;;;11.24;82.94
13434;BME280;6789;47.678;9.158;2023-03-12T17:03:01;96585.47;;;11.14;83.46
13434;BME280;6789;47.678;9.158;2023-03-12T17:07:57;96583.22;;;11.06;84.38
13434;BME280;6789;47.678;9.158;2023-03-12T17:12:50;96578.09;;;10.99;86.22
13434;BME280;6789;47.678;9.158;2023-03-12T17:17:42;96583.13;;;10.89;88.26
13434;BME280;6789;47.678;9.158;2023-03-12T17:22:35;96577.28;;;10.76;90.49
13434;BME280;6789;47.678;9.158;2023-03-12T17:27:41;96593.72;;;10.60;91.94
13434;BME280;6789;47.678;9.158;2023-03-12T17:32:48;96588.69;;;10.47;93.63
13434;BME280;6789;47.678;9.158;2023-03-12T17:37:53;96596.22;;;10.32;96.05
13434;BME280;6789;47.678;9.158;2023-03-12T17:42:46;96585.69;;;10.21;97.44
13434;BME280;6789;47.678;9.158;2023-03-12T17:47:39;96594.00;;;10.06;99.58
13434;BME280;6789;47.678;9.158;2023-03-12T17:52:40;96589.31;;;10.08;99.86
13434;BME280;6789;47.678;9.158;2023-03-12T17:57:31;96585.66;;;9.98;99.65
13434;BME280;6789;47.678;9.158;2023-03-12T18:02:24;96595.25;;;9.86;100.00
13434;BME280;6789;47.678;9.158;2023-03-12T18:07:17;96584.75;;;9.75;100.00
13434;BME280;6789;47.678;9.158;2023-03-12T18:12:09;96576.84;;;9.63;100.00
13434;BME280;6789;47.678;9.158;2023-03-12T18:17:02;96576.56;;;9.53;100.00
13434;BME280;6789;47.678;9.158;2023-03-12T18:22:02;96581.88;;;9.47;100.00
13434;BME280;6789;47.678;9.158;2023-03-12T18:26:54;96575.38;;;9.38;100.00
13434;BME280;6789;47.678;9.158;2023-03-12T18:31:47;96581.25;;;9.33;100.00
13434;BME280;6789;47.678;9.158;2023-03-12T18:36:39;96582.34;;;9.26;100.00
13434;BME280;6789;47.678;9.158;2023-03-12T18:41:32;96582.19;;;9.21;100.00
13434;BME280;6789;47.678;9.158;2023-03-12T18:46:24;96584.66;;;9.16;100.00
13434;BME280;6789;47.678;9.158;2023-03-12T18:51:16;96601.00;;;9.12;100.00
13434;BME280;6789;47.678;9.158;2023-03-12T18:56:08;96596.88;;;9.04;100.00
13434;BME280;6789;47.678;9.158;2023-03-12T19:00:59;96594.63;;;8.90;100.00
13434;BME280;6789;47.678;9.158;2023-03-12T19:06:09;96600.88;;;8.89;100.00
13434;BME280;6789;47.678;9.158;2023-03-12T19:11:05;96604.81;;;8.98;100.00
13434;BME280;6789;47.678;9.158;2023-03-12T19:16:09;96607.59;;;8.78;100.00
13434;BME280;6789;47.678;9.158;2023-03-12T19:21:16;96617.22;;;8.60;100.00
13434;BME280;6789;47.678;9.158;2023-03-12T19:26:09;96606.66;;;8.49;100.00
13434;BME280;6789;47.678;9.158;2023-03-12T19:31:04;96613.38;;;8.38;100.00
13434;BME280;6789;47.678;9.158;2023-03-12T19:35:56;96619.28;;;8.34;100.00
13434;BME280;6789;47.678;9.158;2023-03-12T19:40:53;96614.31;;;8.26;100.00
13434;BME280;6789;47.678;9.158;2023-03-12T19:45:46;96613.09;;;8.22;100.00
13434;BME280;6789;47.678;9.158;2023-03-12T19:50:46;96615.38;;;8.18;100.00
13434;BME280;6789;47.678;9.158;2023-03-12T19:55:38;96615.16;;;8.13;100.00
13434;BME280;6789;47.678;9.158;2023-03-12T20:00:30;96608.97;;;8.08;100.00
13434;BME280;6789;47.678;9.158;2023-03-12T20:05:22;96600.97;;;8.03;100.00
13434;BME280;6789;47.678;9.158;2023-03-12T20:10:14;96609.81;;;8.02;100.00
13434;BME280;6789;47.678;9.158;2023-03-12T20:15:07;96599.78;;;7.99;100.00
13434;BME280;6789;47.678;9.158;2023-03-12T20:19:59;96620.28;;;7.95;100.00
13434;BME280;6789;47.678;9.158;2023-03-12T20:24:52;96620.75;;;7.86;100.00
13434;BME280;6789;47.678;9.158;2023-03-12T20:29:44;96627.63;;;7.80;100.00
13434;BME280;6789;47.678;9.158;2023-03-12T20:34:41;96624.44;;;7.72;100.00
13434;BME280;6789;47.678;9.158;2023-03-12T20:39:32;96624.47;;;7.66;100.00
13434;BME280;6789;47.678;9.158;2023-03-12T20:44:24;96624.09;;;7.62;100.00
13434;BME280;6789;47.678;9.158;2023-03-12T20:49:16;96614.81;;;7.66;100.00
13434;BME280;6789;47.678;9.158;2023-03-12T20:54:08;96620.44;;;7.70;100.00
13434;BME280;6789;47.678;9.158;2023-03-12T20:59:00;96618.47;;;7.65;100.00
13434;BME280;6789;47.678;9.158;2023-03-12T21:03:56;96626.09;;;7.60;100.00
13434;BME280;6789;47.678;9.158;2023-03-12T21:08:48;96627.53;;;7.63;100.00
13434;BME280;6789;47.678;9.158;2023-03-12T21:13:54;96632.91;;;7.68;100.00
13434;BME280;6789;47.678;9.158;2023-03-12T21:18:46;96633.69;;;7.75;100.00
13434;BME280;6789;47.678;9.158;2023-03-12T21:23:39;96634.03;;;7.84;100.00
13434;BME280;6789;47.678;9.158;2023-03-12T21:28:33;96638.19;;;7.92;100.00
13434;BME280;6789;47.678;9.158;2023-03-12T21:33:25;96645.78;;;8.00;100.00
13434;BME280;6789;47.678;9.158;2023-03-12T21:38:17;96637.47;;;8.09;100.00
13434;BME280;6789;47.678;9.158;2023-03-12T21:43:08;96630.00;;;8.19;100.00
13434;BME280;6789;47.678;9.158;2023-03-12T21:48:00;96637.81;;;8.26;100.00
13434;BME280;6789;47.678;9.158;2023-03-12T21:52:52;96628.69;;;8.35;100.00
13434;BME280;6789;47.678;9.158;2023-03-12T21:57:44;96628.44;;;8.43;100.00
13434;BME280;6789;47.678;9.158;2023-03-12T22:02:36;96627.16;;;8.52;98.83
13434;BME280;6789;47.678;9.158;2023-03-12T22:07:28;96620.94;;;8.52;98.55
13434;BME280;6789;47.678;9.158;2023-03-12T22:12:20;96611.47;;;8.52;98.44
13434;BME280;6789;47.678;9.158;2023-03-12T22:17:12;96615.47;;;8.54;97.54
13434;BME280;6789;47.678;9.158;2023-03-12T22:22:04;96614.47;;;8.55;97.14
13434;BME280;6789;47.678;9.158;2023-03-12T22:26:55;96615.41;;;8.60;96.65
13434;BME280;6789;47.678;9.158;2023-03-12T22:31:47;96616.16;;;8.67;96.63
13434;BME280;6789;47.678;9.158;2023-03-12T22:36:39;96611.88;;;8.73;96.40
13434;BME280;6789;47.678;9.158;2023-03-12T22:41:31;96602.66;;;8.70;96.63
13434;BME280;6789;47.678;9.158;2023-03-12T22:46:24;96595.47;;;8.66;95.77
13434;BME280;6789;47.678;9.158;2023-03-12T22:51:17;96578.28;;;8.76;95.74
13434;BME280;6789;47.678;9.158;2023-03-12T22:56:12;96564.47;;;8.69;96.00
13434;BME280;6789;47.678;9.158;2023-03-12T23:01:16;96551.97;;;8.71;95.82
13434;BME280;6789;47.678;9.158;2023-03-12T23:06:26;96548.78;;;8.87;95.81
13434;BME280;6789;47.678;9.158;2023-03-12T23:11:21;96550.53;;;8.75;95.32
13434;BME280;6789;47.678;9.158;2023-03-12T23:16:20;96544.84;;;8.78;95.25
13434;BME280;6789;47.678;9.158;2023-03-12T23:21:20;96536.88;;;8.91;94.15
13434;BME280;6789;47.678;9.158;2023-03-12T23:26:30;96527.22;;;8.92;94.46
13434;BME280;6789;47.678;9.158;2023-03-12T23:31:22;96535.94;;;8.86;94.53
13434;BME280;6789;47.678;9.158;2023-03-12T23:36:17;96526.28;;;8.86;93.61
13434;BME280;6789;47.678;9.158;2023-03-12T23:41:19;96526.41;;;8.91;93.65
13434;BME280;6789;47.678;9.158;2023-03-12T23:46:13;96523.78;;;8.91;93.43
13434;BME280;6789;47.678;9.158;2023-03-12T23:51:19;96517.84;;;8.84;93.87
13434;BME280;6789;47.678;9.158;2023-03-12T23:56:17;96509.06;;;8.79;94.69
